TimeCDT,TemperatureF,Dew PointF,Humidity,Sea Level PressureIn,VisibilityMPH,Wind Direction,Wind SpeedMPH,Gust SpeedMPH,PrecipitationIn,Events,Conditions,WindDirDegrees,DateUTC
12:52 AM,46.0,39.0,76,29.81,10.0,SSE,5.8,-,N/A,,Overcast,160,2013-10-20 05:52:00
1:52 AM,46.9,39.0,74,29.79,10.0,SSE,4.6,-,N/A,,Overcast,150,2013-10-20 06:52:00
2:52 AM,46.9,37.9,71,29.77,10.0,SSE,4.6,-,N/A,,Overcast,160,2013-10-20 07:52:00
3:52 AM,46.0,39.0,76,29.74,10.0,SSE,5.8,-,N/A,,Mostly Cloudy,160,2013-10-20 08:52:00
4:52 AM,46.0,39.0,76,29.73,10.0,SSE,5.8,-,N/A,,Overcast,150,2013-10-20 09:52:00
5:52 AM,46.0,39.0,76,29.72,10.0,SE,5.8,-,N/A,,Overcast,140,2013-10-20 10:52:00
6:52 AM,46.9,37.9,71,29.72,10.0,South,8.1,-,N/A,,Mostly Cloudy,170,2013-10-20 11:52:00
7:52 AM,45.0,39.0,80,29.74,10.0,SSE,5.8,-,N/A,,Overcast,150,2013-10-20 12:52:00
8:52 AM,46.9,39.0,74,29.76,10.0,SSE,4.6,-,0.00,,Overcast,160,2013-10-20 13:52:00
9:52 AM,51.1,39.0,63,29.78,10.0,Calm,Calm,-,N/A,,Overcast,0,2013-10-20 14:52:00
10:52 AM,57.9,39.9,51,29.77,10.0,NNW,5.8,-,N/A,,Overcast,330,2013-10-20 15:52:00
11:52 AM,60.1,42.1,51,29.78,10.0,NW,6.9,-,N/A,,Overcast,320,2013-10-20 16:52:00
12:52 PM,60.1,41.0,49,29.78,10.0,West,4.6,-,N/A,,Overcast,260,2013-10-20 17:52:00
1:52 PM,63.0,39.9,43,29.77,10.0,NW,11.5,17.3,N/A,,Overcast,320,2013-10-20 18:52:00
2:52 PM,64.9,37.9,37,29.76,10.0,WNW,18.4,23.0,N/A,,Overcast,300,2013-10-20 19:52:00
3:52 PM,64.9,37.0,36,29.78,10.0,NW,17.3,21.9,N/A,,Mostly Cloudy,310,2013-10-20 20:52:00
4:52 PM,62.1,36.0,38,29.81,10.0,NW,17.3,26.5,N/A,,Mostly Cloudy,310,2013-10-20 21:52:00
5:52 PM,59.0,35.1,41,29.84,10.0,NW,24.2,29.9,N/A,,Mostly Cloudy,320,2013-10-20 22:52:00
6:52 PM,55.0,37.0,51,29.88,10.0,NNW,18.4,27.6,N/A,,Mostly Cloudy,340,2013-10-20 23:52:00
7:52 PM,51.1,37.9,61,29.92,10.0,NNW,10.4,-,N/A,,Mostly Cloudy,330,2013-10-21 00:52:00
8:52 PM,50.0,37.0,61,29.95,10.0,NW,11.5,-,N/A,,Mostly Cloudy,320,2013-10-21 01:52:00
9:52 PM,48.0,36.0,63,29.98,10.0,NNW,16.1,26.5,N/A,,Mostly Cloudy,330,2013-10-21 02:52:00
10:52 PM,44.1,35.1,71,30.01,10.0,NNW,15.0,23.0,N/A,,Mostly Cloudy,340,2013-10-21 03:52:00
11:52 PM,43.0,35.1,74,30.03,10.0,NNW,10.4,-,N/A,,Mostly Cloudy,330,2013-10-21 04:52:00